Time;durP1;ratioP1;P1;durP2;ratioP2;P2;SDS_P1;SDS_P2;PMS_P1;PMS_P2;Temp;Humidity;BMP_temperature;BMP_pressure;BME280_temperature;BME280_humidity;BME280_pressure;Samples;Min_cycle;Max_cycle;Signal;HPM_P1;HPM_P2
2023/05/28 00:00:01;;;;;;;;;;;13.70;50.80;;;;;;5062195;28;19916;-68
2023/05/28 00:02:26;;;;;;;;;;;13.60;50.90;;;;;;5073829;28;20367;-68
2023/05/28 00:04:52;;;;;;;;;;;13.60;50.90;;;;;;5067164;28;19924;-68
2023/05/28 00:07:17;;;;;;;;;;;13.60;50.90;;;;;;5053883;28;19916;-68
2023/05/28 00:09:42;;;;;;;;;;;13.60;50.90;;;;;;5054211;28;19913;-68
2023/05/28 00:12:08;;;;;;;;;;;13.50;50.90;;;;;;5053592;28;19974;-68
2023/05/28 00:14:34;;;;;;;;;;;13.50;51.00;;;;;;5054153;28;19912;-68
2023/05/28 00:17:00;;;;;;;;;;;13.50;51.10;;;;;;5053529;28;19939;-68
2023/05/28 00:19:25;;;;;;;;;;;13.40;51.10;;;;;;5053927;28;19912;-68
2023/05/28 00:21:51;;;;;;;;;;;13.40;51.10;;;;;;5051764;28;19919;-68
2023/05/28 00:24:17;;;;;;;;;;;13.40;51.20;;;;;;5054229;28;19920;-68
2023/05/28 00:26:42;;;;;;;;;;;13.30;51.20;;;;;;5053609;28;20448;-68
2023/05/28 00:29:08;;;;;;;;;;;13.30;51.40;;;;;;5054085;28;20062;-68
2023/05/28 00:31:33;;;;;;;;;;;13.30;51.50;;;;;;5053523;28;19920;-68
2023/05/28 00:33:59;;;;;;;;;;;13.30;51.50;;;;;;5053043;28;19931;-68
2023/05/28 00:36:25;;;;;;;;;;;13.20;51.50;;;;;;5062692;28;19966;-68
2023/05/28 00:38:50;;;;;;;;;;;13.20;51.50;;;;;;5073514;28;19912;-68
2023/05/28 00:41:20;;;;;;;;;;;13.10;51.50;;;;;;5073353;28;19920;-68
2023/05/28 00:43:46;;;;;;;;;;;13.10;51.60;;;;;;5055606;28;20375;-68
2023/05/28 00:46:11;;;;;;;;;;;13.00;51.80;;;;;;5053068;28;19916;-68
2023/05/28 00:48:38;;;;;;;;;;;13.00;52.10;;;;;;5053094;28;19919;-68
2023/05/28 00:51:03;;;;;;;;;;;13.00;52.20;;;;;;5053265;28;19916;-68
2023/05/28 00:53:29;;;;;;;;;;;13.00;52.40;;;;;;5052693;28;20017;-68
2023/05/28 00:55:55;;;;;;;;;;;12.90;52.50;;;;;;5053350;28;19986;-68
2023/05/28 00:58:21;;;;;;;;;;;12.90;52.50;;;;;;5052353;28;19924;-68
2023/05/28 01:00:47;;;;;;;;;;;12.80;52.60;;;;;;5054090;28;19917;-68
2023/05/28 01:03:12;;;;;;;;;;;12.80;52.50;;;;;;5034656;28;19912;-69
2023/05/28 01:05:38;;;;;;;;;;;12.80;52.50;;;;;;5052823;28;19931;-69
2023/05/28 01:08:05;;;;;;;;;;;12.80;52.50;;;;;;5052852;28;19919;-68
2023/05/28 01:10:31;;;;;;;;;;;12.80;52.50;;;;;;5052803;28;20391;-68
2023/05/28 01:12:57;;;;;;;;;;;12.80;52.50;;;;;;5053126;28;19919;-69
2023/05/28 01:15:24;;;;;;;;;;;12.70;52.60;;;;;;5052321;28;19916;-68
2023/05/28 01:17:52;;;;;;;;;;;12.70;52.50;;;;;;5052362;28;19917;-68
2023/05/28 01:20:17;;;;;;;;;;;12.70;52.50;;;;;;5052802;28;19951;-69
2023/05/28 01:22:45;;;;;;;;;;;12.60;52.50;;;;;;5051936;28;19939;-69
2023/05/28 01:25:12;;;;;;;;;;;12.60;52.60;;;;;;5052336;28;20023;-68
2023/05/28 01:27:41;;;;;;;;;;;12.50;52.50;;;;;;5052210;28;20011;-69
2023/05/28 01:30:09;;;;;;;;;;;12.50;52.60;;;;;;5052018;28;19917;-68
2023/05/28 01:32:35;;;;;;;;;;;12.40;52.70;;;;;;5051923;28;20019;-69
2023/05/28 01:35:01;;;;;;;;;;;12.40;52.90;;;;;;5052296;28;19921;-68
2023/05/28 01:37:27;;;;;;;;;;;12.40;53.10;;;;;;5069556;28;19913;-68
2023/05/28 01:39:53;;;;;;;;;;;12.40;53.50;;;;;;5072136;28;20295;-68
2023/05/28 01:42:18;;;;;;;;;;;12.40;53.50;;;;;;5071885;28;19973;-68
2023/05/28 01:44:44;;;;;;;;;;;12.40;53.50;;;;;;5072515;28;19916;-68
2023/05/28 01:47:12;;;;;;;;;;;12.30;53.60;;;;;;5071888;28;20281;-68
2023/05/28 01:49:38;;;;;;;;;;;12.30;53.40;;;;;;5072664;28;19913;-68
2023/05/28 01:52:04;;;;;;;;;;;12.30;53.40;;;;;;5072256;28;20003;-69
2023/05/28 01:54:29;;;;;;;;;;;12.30;53.30;;;;;;5072615;28;19948;-69
2023/05/28 01:56:55;;;;;;;;;;;12.20;53.40;;;;;;5072135;28;19912;-68
2023/05/28 01:59:20;;;;;;;;;;;12.20;53.60;;;;;;5069464;28;19918;-68
2023/05/28 02:01:46;;;;;;;;;;;12.20;53.60;;;;;;5051897;28;20058;-68
2023/05/28 02:04:11;;;;;;;;;;;12.20;53.80;;;;;;5052036;28;19935;-68
2023/05/28 02:06:37;;;;;;;;;;;12.20;54.00;;;;;;5052084;28;20381;-68
2023/05/28 02:09:03;;;;;;;;;;;12.10;53.80;;;;;;5052251;28;19963;-68
2023/05/28 02:11:28;;;;;;;;;;;12.10;53.80;;;;;;5051770;28;19948;-68
2023/05/28 02:13:54;;;;;;;;;;;12.00;53.80;;;;;;5051941;28;19920;-68
2023/05/28 02:16:20;;;;;;;;;;;12.00;53.80;;;;;;5051501;28;19917;-68
2023/05/28 02:18:47;;;;;;;;;;;12.00;53.90;;;;;;5052074;28;19920;-68
2023/05/28 02:21:13;;;;;;;;;;;11.90;53.80;;;;;;5051851;28;19919;-65
2023/05/28 02:23:42;;;;;;;;;;;11.80;53.90;;;;;;5051615;28;20292;-65
2023/05/28 02:26:07;;;;;;;;;;;11.80;53.90;;;;;;5051655;28;20279;-65
2023/05/28 02:28:33;;;;;;;;;;;11.80;54.10;;;;;;5051983;28;20008;-65
2023/05/28 02:30:58;;;;;;;;;;;11.80;55.10;;;;;;5051883;28;19944;-64
2023/05/28 02:33:24;;;;;;;;;;;11.80;55.10;;;;;;5051208;28;19919;-65
2023/05/28 02:35:49;;;;;;;;;;;11.80;54.90;;;;;;5054921;28;19921;-65
2023/05/28 02:38:15;;;;;;;;;;;11.80;54.80;;;;;;5051744;28;19913;-65
2023/05/28 02:40:41;;;;;;;;;;;11.80;54.60;;;;;;5033362;28;19913;-65
2023/05/28 02:43:06;;;;;;;;;;;11.70;54.60;;;;;;5051307;28;19917;-65
2023/05/28 02:45:32;;;;;;;;;;;11.80;54.60;;;;;;5052363;28;19964;-65
2023/05/28 02:47:57;;;;;;;;;;;11.70;54.60;;;;;;5054591;28;19920;-67
2023/05/28 02:50:22;;;;;;;;;;;11.70;54.50;;;;;;5055759;28;19916;-65
2023/05/28 02:52:48;;;;;;;;;;;11.70;54.60;;;;;;5055417;28;19912;-64
2023/05/28 02:55:13;;;;;;;;;;;11.70;54.70;;;;;;5053992;28;19966;-65
2023/05/28 02:57:39;;;;;;;;;;;11.60;54.80;;;;;;5055053;28;19913;-65
2023/05/28 03:00:08;;;;;;;;;;;11.60;55.00;;;;;;5063836;28;20330;-65
2023/05/28 03:02:34;;;;;;;;;;;11.60;55.20;;;;;;5057654;28;20276;-64
2023/05/28 03:05:02;;;;;;;;;;;11.60;55.20;;;;;;5054949;28;19986;-64
2023/05/28 03:07:28;;;;;;;;;;;11.60;55.30;;;;;;5051246;28;19913;-67
2023/05/28 03:09:53;;;;;;;;;;;11.60;55.50;;;;;;5051897;28;19917;-66
2023/05/28 03:12:19;;;;;;;;;;;11.60;55.40;;;;;;5055000;28;19912;-66
2023/05/28 03:14:44;;;;;;;;;;;11.60;55.40;;;;;;5055459;28;19970;-64
2023/05/28 03:17:10;;;;;;;;;;;11.60;55.50;;;;;;5054804;28;19925;-65
2023/05/28 03:19:36;;;;;;;;;;;11.60;55.50;;;;;;5055104;28;19919;-64
2023/05/28 03:22:02;;;;;;;;;;;11.60;55.50;;;;;;5054739;28;19913;-65
2023/05/28 03:24:27;;;;;;;;;;;11.60;55.50;;;;;;5053348;28;20276;-67
2023/05/28 03:26:53;;;;;;;;;;;11.60;55.60;;;;;;5055108;28;19971;-64
2023/05/28 03:29:18;;;;;;;;;;;11.50;55.60;;;;;;5054331;28;20356;-65
2023/05/28 03:31:45;;;;;;;;;;;11.60;55.60;;;;;;5054444;28;19917;-65
2023/05/28 03:34:10;;;;;;;;;;;11.60;55.50;;;;;;5054725;28;20370;-65
2023/05/28 03:36:35;;;;;;;;;;;11.70;55.60;;;;;;5054165;28;19917;-65
2023/05/28 03:39:01;;;;;;;;;;;11.80;55.60;;;;;;5055004;28;19913;-65
2023/05/28 03:41:26;;;;;;;;;;;11.80;55.80;;;;;;5054070;28;19928;-65
2023/05/28 03:43:52;;;;;;;;;;;11.90;56.00;;;;;;5054967;28;19913;-65
2023/05/28 03:46:17;;;;;;;;;;;12.00;56.10;;;;;;5054290;28;20008;-65
2023/05/28 03:48:43;;;;;;;;;;;12.20;56.10;;;;;;5054830;28;20410;-65
2023/05/28 03:51:09;;;;;;;;;;;12.30;56.10;;;;;;5054506;28;20292;-65
2023/05/28 03:53:35;;;;;;;;;;;12.40;56.20;;;;;;5054320;28;19913;-65
2023/05/28 03:56:01;;;;;;;;;;;12.60;56.30;;;;;;5053559;28;19919;-65
2023/05/28 03:58:26;;;;;;;;;;;12.80;56.50;;;;;;5054200;28;20002;-65
2023/05/28 04:00:52;;;;;;;;;;;13.00;56.60;;;;;;5069472;28;19912;-65
2023/05/28 04:03:17;;;;;;;;;;;13.30;56.80;;;;;;5074160;28;19913;-65
2023/05/28 04:05:43;;;;;;;;;;;13.50;56.70;;;;;;5074026;28;19923;-65
2023/05/28 04:08:08;;;;;;;;;;;13.80;56.80;;;;;;5074154;28;20287;-65
2023/05/28 04:10:33;;;;;;;;;;;14.10;56.80;;;;;;5074160;28;19989;-65
2023/05/28 04:12:59;;;;;;;;;;;14.40;56.80;;;;;;5074047;28;19963;-65
2023/05/28 04:15:24;;;;;;;;;;;14.70;57.00;;;;;;5073937;28;19912;-65
2023/05/28 04:17:50;;;;;;;;;;;14.90;56.80;;;;;;5073919;28;19993;-65
2023/05/28 04:20:16;;;;;;;;;;;15.20;56.80;;;;;;5073870;28;19919;-65
2023/05/28 04:22:41;;;;;;;;;;;15.50;56.70;;;;;;5073695;28;19924;-65
2023/05/28 04:25:07;;;;;;;;;;;15.80;56.70;;;;;;5074081;28;19923;-65
2023/05/28 04:27:32;;;;;;;;;;;16.10;56.60;;;;;;5072230;28;20007;-65
2023/05/28 04:29:57;;;;;;;;;;;16.40;56.50;;;;;;5073637;28;19917;-65
2023/05/28 04:32:23;;;;;;;;;;;16.70;56.40;;;;;;5062971;28;19913;-65
2023/05/28 04:34:51;;;;;;;;;;;17.10;56.20;;;;;;5053715;28;19917;-65
2023/05/28 04:37:17;;;;;;;;;;;17.40;56.00;;;;;;5070109;28;19908;-65
2023/05/28 04:39:42;;;;;;;;;;;17.80;55.80;;;;;;5053748;28;20371;-65
2023/05/28 04:42:09;;;;;;;;;;;18.10;55.40;;;;;;5053518;28;19971;-65
2023/05/28 04:44:34;;;;;;;;;;;18.40;54.80;;;;;;5053158;28;20364;-65
2023/05/28 04:46:59;;;;;;;;;;;18.70;54.70;;;;;;5053494;28;19916;-65
2023/05/28 04:49:25;;;;;;;;;;;19.00;54.40;;;;;;5053674;28;19913;-66
2023/05/28 04:51:51;;;;;;;;;;;19.20;54.10;;;;;;5053433;28;20004;-66
2023/05/28 04:54:17;;;;;;;;;;;19.60;53.50;;;;;;5053450;28;19920;-69
2023/05/28 04:56:42;;;;;;;;;;;19.80;52.50;;;;;;5047347;28;20000;-69
2023/05/28 04:59:09;;;;;;;;;;;20.10;51.80;;;;;;5035892;28;19917;-70
2023/05/28 05:01:35;;;;;;;;;;;20.30;51.60;;;;;;5073994;28;19921;-69
2023/05/28 05:04:01;;;;;;;;;;;20.70;51.40;;;;;;5073766;28;19982;-70
2023/05/28 05:06:26;;;;;;;;;;;21.10;50.60;;;;;;5073096;28;19916;-70
2023/05/28 05:08:53;;;;;;;;;;;21.40;50.60;;;;;;5060990;28;19952;-69
2023/05/28 05:11:19;;;;;;;;;;;21.90;50.30;;;;;;5053196;28;19920;-70
2023/05/28 05:13:44;;;;;;;;;;;22.40;48.30;;;;;;5053246;28;20360;-70
2023/05/28 05:16:10;;;;;;;;;;;22.80;47.70;;;;;;5052949;28;19920;-68
2023/05/28 05:18:36;;;;;;;;;;;23.20;46.90;;;;;;5052491;28;20444;-67
2023/05/28 05:21:01;;;;;;;;;;;23.70;46.50;;;;;;5052507;28;20368;-70
2023/05/28 05:23:27;;;;;;;;;;;24.00;45.80;;;;;;5052706;28;19913;-68
2023/05/28 05:25:52;;;;;;;;;;;24.40;45.50;;;;;;5053057;28;19921;-68
2023/05/28 05:28:17;;;;;;;;;;;24.90;44.10;;;;;;5052632;28;20360;-67
2023/05/28 05:30:43;;;;;;;;;;;25.30;43.40;;;;;;5052893;28;19913;-70
2023/05/28 05:33:08;;;;;;;;;;;25.70;43.50;;;;;;5052581;28;19974;-68
2023/05/28 05:35:34;;;;;;;;;;;26.20;42.70;;;;;;5055298;28;19917;-69
2023/05/28 05:37:59;;;;;;;;;;;26.60;41.80;;;;;;5052472;28;19917;-69
2023/05/28 05:40:25;;;;;;;;;;;27.00;41.40;;;;;;5052588;28;19960;-69
2023/05/28 05:42:51;;;;;;;;;;;27.40;40.40;;;;;;5051826;28;19944;-69
2023/05/28 05:45:16;;;;;;;;;;;27.80;39.20;;;;;;5052403;28;19920;-69
2023/05/28 05:47:44;;;;;;;;;;;28.30;38.10;;;;;;5050533;28;21281;-69
2023/05/28 05:50:11;;;;;;;;;;;28.60;37.70;;;;;;5050850;28;19909;-69
2023/05/28 05:52:36;;;;;;;;;;;28.90;36.70;;;;;;5052658;28;19915;-69
2023/05/28 05:55:01;;;;;;;;;;;29.20;36.20;;;;;;5053269;28;19972;-69
2023/05/28 05:57:27;;;;;;;;;;;29.40;35.50;;;;;;5051682;28;20331;-69
2023/05/28 05:59:53;;;;;;;;;;;29.70;34.80;;;;;;5053430;28;19915;-69
2023/05/28 06:02:18;;;;;;;;;;;30.00;34.40;;;;;;5052874;28;20003;-69
2023/05/28 06:04:44;;;;;;;;;;;30.20;33.90;;;;;;5052443;28;19924;-69
2023/05/28 06:07:10;;;;;;;;;;;30.50;33.40;;;;;;5035819;28;20070;-65
2023/05/28 06:09:36;;;;;;;;;;;30.80;32.80;;;;;;5032317;28;20000;-65
2023/05/28 06:12:01;;;;;;;;;;;31.10;32.70;;;;;;5031708;28;20330;-65
2023/05/28 06:14:27;;;;;;;;;;;31.50;32.40;;;;;;5031940;28;19917;-65
2023/05/28 06:16:53;;;;;;;;;;;31.80;32.20;;;;;;5032007;28;20357;-65
2023/05/28 06:19:18;;;;;;;;;;;32.10;31.80;;;;;;5031391;28;20254;-65
2023/05/28 06:21:44;;;;;;;;;;;32.40;31.20;;;;;;5031617;28;19949;-65
2023/05/28 06:24:09;;;;;;;;;;;32.60;30.60;;;;;;5032055;28;19917;-66
2023/05/28 06:26:35;;;;;;;;;;;32.80;29.80;;;;;;5031741;28;19913;-66
2023/05/28 06:29:00;;;;;;;;;;;33.10;29.30;;;;;;5031898;28;19917;-66
2023/05/28 06:31:26;;;;;;;;;;;33.40;28.60;;;;;;5031826;28;19910;-65
2023/05/28 06:33:51;;;;;;;;;;;33.60;28.30;;;;;;5013911;28;19917;-65
2023/05/28 06:36:17;;;;;;;;;;;33.80;27.60;;;;;;5047865;28;19962;-65
2023/05/28 06:38:43;;;;;;;;;;;34.10;27.70;;;;;;5071523;28;20437;-65
2023/05/28 06:41:08;;;;;;;;;;;34.50;27.50;;;;;;5071381;28;19913;-65
2023/05/28 06:43:34;;;;;;;;;;;34.80;26.50;;;;;;5056058;28;19967;-65
2023/05/28 06:45:59;;;;;;;;;;;34.90;25.80;;;;;;5051424;28;20007;-68
2023/05/28 06:48:25;;;;;;;;;;;35.00;25.40;;;;;;5051616;28;19924;-66
2023/05/28 06:50:50;;;;;;;;;;;35.00;25.50;;;;;;5051462;28;19916;-65
2023/05/28 06:53:16;;;;;;;;;;;35.10;25.10;;;;;;5051418;28;19940;-66
2023/05/28 06:55:41;;;;;;;;;;;35.30;25.40;;;;;;5051310;28;19913;-65
2023/05/28 06:58:07;;;;;;;;;;;35.60;25.30;;;;;;5051299;28;19935;-66
2023/05/28 07:00:32;;;;;;;;;;;35.90;24.80;;;;;;5063944;28;20027;-68
2023/05/28 07:02:58;;;;;;;;;;;36.10;24.60;;;;;;5071631;28;20355;-66
2023/05/28 07:05:23;;;;;;;;;;;36.30;24.50;;;;;;5071570;28;19927;-66
2023/05/28 07:07:49;;;;;;;;;;;36.60;24.40;;;;;;5070589;28;19908;-65
2023/05/28 07:10:15;;;;;;;;;;;36.90;24.50;;;;;;5071865;28;19971;-66
2023/05/28 07:12:40;;;;;;;;;;;37.30;24.20;;;;;;5071422;28;19916;-65
2023/05/28 07:15:06;;;;;;;;;;;37.60;23.80;;;;;;5071410;28;19917;-66
2023/05/28 07:17:32;;;;;;;;;;;37.90;23.60;;;;;;5071240;28;20353;-66
2023/05/28 07:19:57;;;;;;;;;;;38.20;23.40;;;;;;5071154;28;19950;-65
2023/05/28 07:22:24;;;;;;;;;;;38.50;23.20;;;;;;5070934;28;20256;-66
2023/05/28 07:24:49;;;;;;;;;;;38.80;22.80;;;;;;5070848;28;19921;-66
2023/05/28 07:27:15;;;;;;;;;;;39.00;22.00;;;;;;5070868;28;19919;-66
2023/05/28 07:29:41;;;;;;;;;;;38.80;21.00;;;;;;5069103;28;19913;-66
2023/05/28 07:32:06;;;;;;;;;;;38.80;21.10;;;;;;5071990;28;19908;-66
2023/05/28 07:34:32;;;;;;;;;;;38.90;21.00;;;;;;5072361;28;19922;-67
2023/05/28 07:36:57;;;;;;;;;;;39.10;21.20;;;;;;5058587;28;19913;-66
2023/05/28 07:39:23;;;;;;;;;;;39.30;20.60;;;;;;5052774;28;19915;-66
2023/05/28 07:41:48;;;;;;;;;;;39.20;19.70;;;;;;5053098;28;20004;-66
2023/05/28 07:44:15;;;;;;;;;;;39.00;19.60;;;;;;5053075;28;19909;-66
2023/05/28 07:46:40;;;;;;;;;;;38.80;20.00;;;;;;5053837;28;19932;-65
2023/05/28 07:49:06;;;;;;;;;;;39.00;20.00;;;;;;5054366;28;19912;-66
2023/05/28 07:51:32;;;;;;;;;;;39.20;20.30;;;;;;5054519;28;19920;-66
2023/05/28 07:53:57;;;;;;;;;;;39.40;19.70;;;;;;5053783;28;19952;-66
2023/05/28 07:56:23;;;;;;;;;;;39.50;19.20;;;;;;5051125;28;19917;-66
2023/05/28 07:58:48;;;;;;;;;;;39.60;19.20;;;;;;5043416;28;20319;-66
2023/05/28 08:01:14;;;;;;;;;;;39.80;19.20;;;;;;5049785;28;20048;-66
2023/05/28 08:03:40;;;;;;;;;;;39.90;19.00;;;;;;5033961;28;20004;-66
2023/05/28 08:06:06;;;;;;;;;;;40.10;18.70;;;;;;5034507;28;19982;-66
2023/05/28 08:08:32;;;;;;;;;;;40.20;18.70;;;;;;5034049;28;19923;-66
2023/05/28 08:10:57;;;;;;;;;;;40.30;18.40;;;;;;5034250;28;19964;-66
2023/05/28 08:13:23;;;;;;;;;;;40.20;17.70;;;;;;5041266;28;19935;-66
2023/05/28 08:15:48;;;;;;;;;;;39.90;17.00;;;;;;5052484;28;19976;-64
2023/05/28 08:18:14;;;;;;;;;;;39.80;17.20;;;;;;5051986;28;19913;-65
2023/05/28 08:20:40;;;;;;;;;;;40.00;17.50;;;;;;5054010;28;19928;-65
2023/05/28 08:23:05;;;;;;;;;;;40.20;17.50;;;;;;5054331;28;19935;-65
2023/05/28 08:25:32;;;;;;;;;;;40.40;17.20;;;;;;5052786;28;20326;-65
2023/05/28 08:27:57;;;;;;;;;;;40.50;17.20;;;;;;5052160;28;20229;-65
2023/05/28 08:30:22;;;;;;;;;;;40.40;17.10;;;;;;5052917;28;19916;-65
2023/05/28 08:32:48;;;;;;;;;;;40.60;17.20;;;;;;5051292;28;19917;-64
2023/05/28 08:35:14;;;;;;;;;;;40.70;16.80;;;;;;5052991;28;19924;-65
2023/05/28 08:37:39;;;;;;;;;;;40.70;16.80;;;;;;5069555;28;19916;-67
2023/05/28 08:40:08;;;;;;;;;;;40.70;16.70;;;;;;5054029;28;19920;-65
2023/05/28 08:42:34;;;;;;;;;;;40.70;16.70;;;;;;5050181;28;19923;-64
2023/05/28 08:45:00;;;;;;;;;;;40.80;16.60;;;;;;5052007;28;19959;-66
2023/05/28 08:47:27;;;;;;;;;;;40.80;16.70;;;;;;5048482;28;19920;-65
2023/05/28 08:49:53;;;;;;;;;;;41.00;16.50;;;;;;5032790;28;20006;-65
2023/05/28 08:52:22;;;;;;;;;;;40.90;16.00;;;;;;5049350;28;20044;-65
2023/05/28 08:54:48;;;;;;;;;;;40.80;15.80;;;;;;5024123;28;20015;-65
2023/05/28 08:57:14;;;;;;;;;;;40.70;16.30;;;;;;5047995;28;20000;-65
2023/05/28 08:59:39;;;;;;;;;;;40.90;16.10;;;;;;5032474;28;19944;-64
2023/05/28 09:02:06;;;;;;;;;;;41.10;16.00;;;;;;5046414;28;19999;-67
2023/05/28 09:04:31;;;;;;;;;;;41.40;15.90;;;;;;5035360;28;20322;-67
2023/05/28 09:06:56;;;;;;;;;;;41.80;15.90;;;;;;5048836;28;19917;-66
2023/05/28 09:09:23;;;;;;;;;;;42.00;16.00;;;;;;5034841;28;19948;-65
2023/05/28 09:11:48;;;;;;;;;;;42.10;15.60;;;;;;5041077;28;19967;-65
2023/05/28 09:14:17;;;;;;;;;;;42.20;15.70;;;;;;5041805;28;19913;-65
2023/05/28 09:16:43;;;;;;;;;;;42.30;15.30;;;;;;5048535;28;19952;-66
2023/05/28 09:19:09;;;;;;;;;;;42.20;15.30;;;;;;5033958;28;20376;-64
2023/05/28 09:21:36;;;;;;;;;;;42.20;14.70;;;;;;5041888;28;19920;-66
2023/05/28 09:24:02;;;;;;;;;;;42.00;14.40;;;;;;5031778;28;19980;-66
2023/05/28 09:26:31;;;;;;;;;;;41.90;14.50;;;;;;5044291;28;19963;-66
2023/05/28 09:28:57;;;;;;;;;;;41.80;14.40;;;;;;5022118;28;20019;-65
2023/05/28 09:31:27;;;;;;;;;;;41.70;14.80;;;;;;5042735;28;20360;-65
2023/05/28 09:33:52;;;;;;;;;;;41.60;14.50;;;;;;5048132;28;20423;-65
2023/05/28 09:36:18;;;;;;;;;;;41.40;14.60;;;;;;5047947;28;19921;-65
2023/05/28 09:38:44;;;;;;;;;;;41.30;14.60;;;;;;5032158;28;19909;-65
2023/05/28 09:41:19;;;;;;;;;;;41.40;14.80;;;;;;5044764;28;20335;-65
2023/05/28 09:43:45;;;;;;;;;;;41.60;14.80;;;;;;5045800;28;20371;-65
2023/05/28 09:46:10;;;;;;;;;;;41.60;14.40;;;;;;5046488;28;20027;-65
2023/05/28 09:48:35;;;;;;;;;;;41.70;14.40;;;;;;5050232;28;19913;-65
2023/05/28 09:51:03;;;;;;;;;;;41.40;14.10;;;;;;5052461;28;19917;-66
2023/05/28 09:53:29;;;;;;;;;;;41.10;14.40;;;;;;5033313;28;19917;-67
2023/05/28 09:55:56;;;;;;;;;;;41.00;14.70;;;;;;5048484;28;20327;-65
2023/05/28 09:58:24;;;;;;;;;;;41.10;14.90;;;;;;5050457;28;19912;-65
2023/05/28 10:00:54;;;;;;;;;;;41.10;14.80;;;;;;5066565;28;19917;-65
2023/05/28 10:03:40;;;;;;;;;;;41.10;15.10;;;;;;5055841;28;19939;-70
2023/05/28 10:06:11;;;;;;;;;;;41.20;15.20;;;;;;5049390;28;19921;-70
2023/05/28 10:08:37;;;;;;;;;;;41.00;14.60;;;;;;5052028;28;19913;-70
2023/05/28 10:11:05;;;;;;;;;;;40.90;14.60;;;;;;5052777;28;20269;-70
2023/05/28 10:13:31;;;;;;;;;;;40.70;14.60;;;;;;5051758;28;19939;-69
2023/05/28 10:15:57;;;;;;;;;;;40.20;14.70;;;;;;5048896;28;19916;-69
2023/05/28 10:18:24;;;;;;;;;;;39.80;15.20;;;;;;5052186;28;19932;-69
2023/05/28 10:20:50;;;;;;;;;;;39.50;15.20;;;;;;5052300;28;19924;-69
2023/05/28 10:23:16;;;;;;;;;;;38.90;15.50;;;;;;5050801;28;19913;-69
2023/05/28 10:25:41;;;;;;;;;;;38.40;15.80;;;;;;5049331;28;19931;-69
2023/05/28 10:28:07;;;;;;;;;;;38.30;16.30;;;;;;5051977;28;19963;-69
2023/05/28 10:30:37;;;;;;;;;;;38.30;16.20;;;;;;5050522;28;19920;-69
2023/05/28 10:33:07;;;;;;;;;;;38.00;16.30;;;;;;5052649;28;19920;-70
2023/05/28 10:35:34;;;;;;;;;;;37.80;16.60;;;;;;5045593;28;19982;-70
2023/05/28 10:38:08;;;;;;;;;;;37.30;16.70;;;;;;5037039;28;19913;-70
2023/05/28 10:40:34;;;;;;;;;;;37.10;17.10;;;;;;5049139;28;20379;-70
2023/05/28 10:43:00;;;;;;;;;;;37.00;17.50;;;;;;5037873;28;20007;-69
2023/05/28 10:45:35;;;;;;;;;;;36.80;17.60;;;;;;5043286;28;19925;-66
2023/05/28 10:48:02;;;;;;;;;;;36.90;17.80;;;;;;5050515;28;19913;-66
2023/05/28 10:50:27;;;;;;;;;;;37.00;17.90;;;;;;5048897;28;19921;-66
2023/05/28 10:53:03;;;;;;;;;;;37.20;17.80;;;;;;5038838;28;20288;-65
2023/05/28 10:55:45;;;;;;;;;;;37.30;17.70;;;;;;5043524;28;20323;-66
2023/05/28 10:58:12;;;;;;;;;;;37.50;17.20;;;;;;5045909;28;20280;-65
2023/05/28 11:00:41;;;;;;;;;;;37.30;17.00;;;;;;5049549;28;19967;-65
2023/05/28 11:03:06;;;;;;;;;;;37.10;17.00;;;;;;5048262;28;20043;-66
2023/05/28 11:05:34;;;;;;;;;;;37.00;17.30;;;;;;5046781;28;20071;-65
2023/05/28 11:08:01;;;;;;;;;;;37.00;17.30;;;;;;5052032;28;19923;-65
2023/05/28 11:10:27;;;;;;;;;;;37.00;17.30;;;;;;5054787;28;20008;-65
2023/05/28 11:12:53;;;;;;;;;;;37.00;17.30;;;;;;5054196;28;19919;-65
2023/05/28 11:15:20;;;;;;;;;;;37.20;17.50;;;;;;5049272;28;19916;-66
2023/05/28 11:17:46;;;;;;;;;;;37.30;17.10;;;;;;5054876;28;19913;-66
2023/05/28 11:20:18;;;;;;;;;;;37.20;16.90;;;;;;5051826;28;19924;-66
2023/05/28 11:22:44;;;;;;;;;;;37.10;17.10;;;;;;5053277;28;20401;-65
2023/05/28 11:25:09;;;;;;;;;;;37.20;17.20;;;;;;5050118;28;19959;-66
2023/05/28 11:27:36;;;;;;;;;;;37.40;17.40;;;;;;5051745;28;20015;-65
2023/05/28 11:30:32;;;;;;;;;;;37.60;17.20;;;;;;5054747;28;19916;-65
2023/05/28 11:33:01;;;;;;;;;;;37.30;17.00;;;;;;5042526;28;20072;-65
2023/05/28 11:35:27;;;;;;;;;;;36.80;17.50;;;;;;5050088;28;19917;-65
2023/05/28 11:37:53;;;;;;;;;;;36.70;18.10;;;;;;5053192;28;19913;-65
2023/05/28 11:40:18;;;;;;;;;;;36.70;18.20;;;;;;5054723;28;19952;-66
2023/05/28 11:42:44;;;;;;;;;;;36.70;18.30;;;;;;5053597;28;19990;-65
2023/05/28 11:45:11;;;;;;;;;;;36.70;18.30;;;;;;5049817;28;20369;-65
2023/05/28 11:47:37;;;;;;;;;;;36.60;18.00;;;;;;5052869;28;19916;-65
2023/05/28 11:50:06;;;;;;;;;;;36.40;18.30;;;;;;5053845;28;19924;-65
2023/05/28 11:52:31;;;;;;;;;;;36.50;18.60;;;;;;5053451;28;19920;-65
2023/05/28 11:54:57;;;;;;;;;;;36.60;18.60;;;;;;5049140;28;20371;-66
2023/05/28 11:57:24;;;;;;;;;;;36.50;18.90;;;;;;5052579;28;19909;-65
2023/05/28 11:59:53;;;;;;;;;;;36.30;18.60;;;;;;5052482;28;19970;-65
2023/05/28 12:02:21;;;;;;;;;;;36.00;18.70;;;;;;5053915;28;19916;-65
2023/05/28 12:04:57;;;;;;;;;;;35.60;19.00;;;;;;5049758;28;20025;-67
2023/05/28 12:07:27;;;;;;;;;;;35.30;19.30;;;;;;5053241;28;19955;-65
2023/05/28 12:10:01;;;;;;;;;;;35.30;19.50;;;;;;5052999;28;20269;-65
2023/05/28 12:12:27;;;;;;;;;;;35.20;19.90;;;;;;5053517;28;19916;-65
2023/05/28 12:14:57;;;;;;;;;;;35.30;20.10;;;;;;5048844;28;19920;-68
2023/05/28 12:17:23;;;;;;;;;;;35.50;20.10;;;;;;5052126;28;20003;-66
2023/05/28 12:19:48;;;;;;;;;;;35.40;19.80;;;;;;5051235;28;20058;-65
2023/05/28 12:22:15;;;;;;;;;;;35.30;19.90;;;;;;5052197;28;20076;-65
2023/05/28 12:24:46;;;;;;;;;;;35.10;19.70;;;;;;5051114;28;19916;-68
2023/05/28 12:27:11;;;;;;;;;;;34.80;19.90;;;;;;5050392;28;19913;-68
2023/05/28 12:29:37;;;;;;;;;;;34.70;20.10;;;;;;5052620;28;19920;-69
2023/05/28 12:32:03;;;;;;;;;;;34.70;20.30;;;;;;5052228;28;20275;-69
2023/05/28 12:34:29;;;;;;;;;;;34.70;20.20;;;;;;5051214;28;20395;-68
2023/05/28 12:36:55;;;;;;;;;;;34.70;19.90;;;;;;5057123;28;19913;-68
2023/05/28 12:39:20;;;;;;;;;;;34.70;20.00;;;;;;5035776;28;19913;-69
2023/05/28 12:41:46;;;;;;;;;;;34.70;19.80;;;;;;5051445;28;19925;-70
2023/05/28 12:44:11;;;;;;;;;;;34.50;20.10;;;;;;5053238;28;20386;-69
2023/05/28 12:46:36;;;;;;;;;;;34.40;20.10;;;;;;5047276;28;19940;-69
2023/05/28 12:49:02;;;;;;;;;;;34.30;19.90;;;;;;5052456;28;20015;-70
2023/05/28 12:51:28;;;;;;;;;;;34.30;20.00;;;;;;5052045;28;19999;-69
2023/05/28 12:53:53;;;;;;;;;;;34.30;20.20;;;;;;5045187;28;19917;-69
2023/05/28 12:56:18;;;;;;;;;;;34.40;19.50;;;;;;5048545;28;19924;-69
2023/05/28 12:58:44;;;;;;;;;;;34.20;19.80;;;;;;5051761;28;19912;-69
2023/05/28 13:01:10;;;;;;;;;;;34.20;20.10;;;;;;5052148;28;20253;-68
2023/05/28 13:03:35;;;;;;;;;;;34.20;20.40;;;;;;5052205;28;20070;-68
2023/05/28 13:06:01;;;;;;;;;;;34.20;20.30;;;;;;5046480;28;19928;-68
2023/05/28 13:08:26;;;;;;;;;;;34.20;20.40;;;;;;5052331;28;19924;-68
2023/05/28 13:10:51;;;;;;;;;;;34.30;20.30;;;;;;5051150;28;19924;-68
2023/05/28 13:13:17;;;;;;;;;;;34.30;20.20;;;;;;5052465;28;20383;-69
2023/05/28 13:15:42;;;;;;;;;;;34.10;19.60;;;;;;5047681;28;19983;-70
2023/05/28 13:18:08;;;;;;;;;;;33.80;19.50;;;;;;5051943;28;19916;-69
2023/05/28 13:20:33;;;;;;;;;;;33.60;19.70;;;;;;5048343;28;20218;-69
2023/05/28 13:22:59;;;;;;;;;;;33.50;19.70;;;;;;5050916;28;19936;-71
2023/05/28 13:25:24;;;;;;;;;;;33.50;19.90;;;;;;5046554;28;20269;-69
2023/05/28 13:27:50;;;;;;;;;;;33.30;19.30;;;;;;5051704;28;19917;-69
2023/05/28 13:30:16;;;;;;;;;;;33.20;19.60;;;;;;5050421;28;19925;-69
2023/05/28 13:32:41;;;;;;;;;;;33.20;19.80;;;;;;5051909;28;19940;-69
2023/05/28 13:35:09;;;;;;;;;;;33.10;19.50;;;;;;5046659;28;19963;-67
2023/05/28 13:37:35;;;;;;;;;;;33.00;19.60;;;;;;5034602;28;19909;-68
2023/05/28 13:40:00;;;;;;;;;;;33.00;19.70;;;;;;5051622;28;19982;-68
2023/05/28 13:42:27;;;;;;;;;;;33.00;19.90;;;;;;5050710;28;20380;-68
2023/05/28 13:44:52;;;;;;;;;;;33.00;20.30;;;;;;5048659;28;19947;-68
2023/05/28 13:47:19;;;;;;;;;;;33.00;20.40;;;;;;5049205;28;19913;-69
2023/05/28 13:49:44;;;;;;;;;;;32.80;20.40;;;;;;5051625;28;19963;-69
2023/05/28 13:52:10;;;;;;;;;;;32.70;20.20;;;;;;5049728;28;20380;-68
2023/05/28 13:54:35;;;;;;;;;;;32.60;20.00;;;;;;5049002;28;20348;-68
2023/05/28 13:57:01;;;;;;;;;;;32.60;19.90;;;;;;5047543;28;19920;-68
2023/05/28 13:59:26;;;;;;;;;;;32.50;20.40;;;;;;5049911;28;20426;-69
2023/05/28 14:01:52;;;;;;;;;;;32.50;20.70;;;;;;5047354;28;19912;-69
2023/05/28 14:04:17;;;;;;;;;;;32.60;21.00;;;;;;5031078;28;19974;-68
2023/05/28 14:06:43;;;;;;;;;;;32.60;20.40;;;;;;5048409;28;19977;-68
2023/05/28 14:09:08;;;;;;;;;;;32.60;20.10;;;;;;5050053;28;20050;-69